Terminal Aerodrome Forecast
Issued by NWS

Home | Current Version | Previous Version | Text Only | Print | Product List | Glossary On
Versions: 1 2 3 4 5 6 7 8 9 10 11 12 13
484
FTUS43 KDLH 272056 AAA
TAFHYR
TAF AMD
KHYR 272056Z 2721/2818 03009KT P6SM SCT090
     FM281000 VRB03KT 5SM BR SCT120
     FM281400 VRB03KT P6SM FEW150=

USA.gov is the U.S. government's official web portal to all federal, state and local government web resources and services.